Great Cacapon, West Virginia
Current Conditions -  °F | °C
As of 3:53 PM on Thursday 18 Dec 2014 (Local Time) from KMRB Reporting Station
Clear Clear  
Wind Chill: 30°   Ceiling: Unl
Heat Index: 36°   Visibility: 10mi
Dew Point: 19°   Wind: 8mph
Humidity: 50%   Direction: 330°NNW
Pressure: 30.09"   Gusts: NA
Location:  39.62°N, 78.29°W
Report Text: KMRB 182053Z 33007KT 10SM CLR 02/M07 A3009 RMK AO2 SLP195 T00221072 56015
Loading
Personal Weather Stations






























Interactive Weather Map New forecast layout! Learn more

10-Day Weather Forecast

Advertisements
Track Severe Weather on mobile